Terminal Aerodrome Forecast
Issued by NWS Shreveport, LA

Home | Current Version | Previous Version | Text Only | Print | Product List | Glossary On
Versions: 1 2 3 4 5 6 7 8 9 10 11 12 13
000
FTUS44 KSHV 022327
TAFLFK
TAF
KLFK 022327Z 0300/0324 13003KT P6SM FEW060 SCT120 BKN250
      TEMPO 0310/0314 4SM BR BKN010
     FM031400 15005KT P6SM SCT030 BKN100 BKN250
     FM031800 16006KT P6SM SCT050 SCT100 SCT250=

USA.gov is the U.S. government's official web portal to all federal, state and local government web resources and services.